Terminal Aerodrome Forecast
Issued by NWS

Home | Current Version | Previous Version | Graphics & Text | Print | Product List | Glossary On
Versions: 1 2 3 4 5 6 7 8 9 10 11 12 13 14 15 16 17 18
000
FTUS43 KMPX 170200 AAA
TAFRNH
TAF AMD
KRNH 170254Z 1703/1724 30011KT P6SM -SN BKN019 OVC050
     FM171000 31009KT P6SM -SN OVC018
     FM172100 34004KT P6SM SCT020 BKN100=

USA.gov is the U.S. government's official web portal to all federal, state and local government web resources and services.